createdAt,value
2022-09-23T03:57:47.001Z,100809.84
2022-09-23T04:00:49.985Z,100811.91
2022-09-23T04:03:53.525Z,100814.03
2022-09-23T04:06:56.616Z,100815.88
2022-09-23T04:09:59.656Z,100816.72
2022-09-23T04:13:02.070Z,100811.50
2022-09-23T04:16:05.072Z,100818.81
2022-09-23T04:19:11.749Z,100818.69
2022-09-23T04:22:14.745Z,100811.50
2022-09-23T04:25:17.271Z,100813.47
2022-09-23T04:28:21.051Z,100821.22
2022-09-23T04:31:23.918Z,100814.19
2022-09-23T04:34:26.864Z,100821.50
2022-09-23T04:37:29.513Z,100818.38
2022-09-23T04:40:32.871Z,100825.56
2022-09-23T04:43:35.694Z,100828.22
2022-09-23T04:46:39.508Z,100825.00
2022-09-23T04:49:42.183Z,100825.72
2022-09-23T04:52:44.900Z,100824.84
2022-09-23T04:55:47.490Z,100825.12
2022-09-23T04:58:50.946Z,100829.50
2022-09-23T05:01:55.428Z,100828.22
2022-09-23T05:04:58.400Z,100833.47
2022-09-23T05:08:00.999Z,100838.97
2022-09-23T05:11:05.000Z,100838.69
2022-09-23T05:14:07.593Z,100842.09
2022-09-23T05:17:10.400Z,100840.13
2022-09-23T05:20:13.614Z,100847.03
2022-09-23T05:23:16.435Z,100848.56
2022-09-23T05:26:18.971Z,100848.97
2022-09-23T05:29:21.757Z,100853.63
2022-09-23T05:32:27.076Z,100853.91
2022-09-23T05:35:29.866Z,100859.78
2022-09-23T05:38:35.396Z,100857.41
2022-09-23T05:41:40.293Z,100858.75
2022-09-23T05:44:43.017Z,100856.75
2022-09-23T05:47:45.816Z,100861.66
2022-09-23T05:50:52.046Z,100859.78
2022-09-23T05:53:58.250Z,100854.37
2022-09-23T05:57:04.199Z,100859.25
2022-09-23T06:00:08.653Z,100861.28
2022-09-23T06:03:18.940Z,100858.50
2022-09-23T06:06:36.166Z,100863.25
2022-09-23T06:09:38.746Z,100860.00
2022-09-23T06:12:42.516Z,100855.50
2022-09-23T06:15:45.456Z,100856.88
2022-09-23T06:18:48.469Z,100863.41
2022-09-23T06:21:50.935Z,100864.91
2022-09-23T06:24:53.651Z,100864.84
2022-09-23T06:27:56.542Z,100865.78
2022-09-23T06:31:01.774Z,100872.62
2022-09-23T06:34:11.684Z,100862.12
2022-09-23T06:37:20.174Z,100859.19
2022-09-23T06:40:23.328Z,100866.22
2022-09-23T06:43:26.875Z,100867.44
2022-09-23T06:46:31.295Z,100872.69
2022-09-23T06:49:34.243Z,100873.09
2022-09-23T06:52:36.762Z,100874.84
2022-09-23T06:55:41.638Z,100878.34
2022-09-23T06:58:44.447Z,100872.78
2022-09-23T07:01:50.666Z,100872.31
2022-09-23T07:04:56.581Z,100875.53
2022-09-23T07:07:59.649Z,100877.75
2022-09-23T07:11:05.024Z,100874.03
2022-09-23T07:14:07.893Z,100876.38
2022-09-23T07:17:10.582Z,100876.53
2022-09-23T07:20:13.481Z,100877.31
2022-09-23T07:23:17.805Z,100876.78
2022-09-23T07:26:21.469Z,100873.03
2022-09-23T07:29:23.965Z,100878.91
2022-09-23T07:32:28.298Z,100882.25
2022-09-23T07:35:32.996Z,100881.09
2022-09-23T07:38:37.989Z,100887.50
2022-09-23T07:41:44.923Z,100878.66
2022-09-23T07:44:48.010Z,100880.59
2022-09-23T07:47:50.746Z,100883.16
2022-09-23T07:50:53.654Z,100875.69
2022-09-23T07:53:56.749Z,100881.09
2022-09-23T07:57:00.092Z,100879.12
2022-09-23T08:00:03.886Z,100879.03
2022-09-23T08:03:15.010Z,100879.25
2022-09-23T08:06:17.816Z,100877.41
2022-09-23T08:09:22.939Z,100877.09
2022-09-23T08:12:25.713Z,100872.09
2022-09-23T08:15:28.352Z,100867.78
2022-09-23T08:18:31.268Z,100875.53
2022-09-23T08:21:33.864Z,100868.69
2022-09-23T08:24:36.610Z,100864.56
2022-09-23T08:27:40.021Z,100860.81
2022-09-23T08:30:44.573Z,100859.72
2022-09-23T08:33:47.254Z,100858.31
2022-09-23T08:36:52.300Z,100860.44
2022-09-23T08:39:54.812Z,100862.38
2022-09-23T08:42:57.948Z,100860.69
2022-09-23T08:46:06.018Z,100855.84
2022-09-23T08:49:12.617Z,100850.22
2022-09-23T08:52:28.025Z,100856.59
2022-09-23T08:55:53.867Z,100858.13
2022-09-23T08:59:09.611Z,100848.69
2022-09-23T09:02:20.598Z,100851.63
2022-09-23T09:05:27.670Z,100850.94
2022-09-23T09:08:36.844Z,100856.12
2022-09-23T09:11:48.586Z,100853.81
2022-09-23T09:15:06.961Z,100844.88
2022-09-23T09:18:19.974Z,100850.97
2022-09-23T09:21:33.398Z,100846.97
2022-09-23T09:24:35.970Z,100843.78
2022-09-23T09:27:41.257Z,100844.78
2022-09-23T09:30:48.454Z,100838.13
2022-09-23T09:34:13.274Z,100833.09
2022-09-23T09:37:37.378Z,100829.19
2022-09-23T09:40:46.630Z,100833.66
2022-09-23T09:43:53.440Z,100826.78
2022-09-23T09:47:20.819Z,100825.69
2022-09-23T09:50:42.373Z,100828.59
2022-09-23T09:53:45.404Z,100816.47
2022-09-23T09:59:57.624Z,100813.97
2022-09-23T10:03:21.031Z,100815.84
2022-09-23T10:06:33.338Z,100812.75
2022-09-23T10:09:37.898Z,100803.91
2022-09-23T10:12:46.818Z,100800.56
2022-09-23T10:15:50.037Z,100799.72
2022-09-23T10:18:56.799Z,100804.56
2022-09-23T10:22:05.387Z,100799.03
2022-09-23T10:25:21.286Z,100799.53
2022-09-23T10:28:48.724Z,100798.16
2022-09-23T10:32:27.982Z,100797.09
2022-09-23T10:35:33.469Z,100796.69
2022-09-23T10:38:36.582Z,100795.50
2022-09-23T10:42:07.597Z,100791.53
2022-09-23T10:45:43.281Z,100783.63
2022-09-23T10:49:08.994Z,100786.28
2022-09-23T10:52:49.357Z,100772.50
2022-09-23T10:56:16.390Z,100778.19
2022-09-23T10:59:50.550Z,100770.75
2022-09-23T11:03:27.732Z,100775.53
2022-09-23T11:06:45.946Z,100761.66
2022-09-23T11:10:18.561Z,100758.63
2022-09-23T11:14:08.252Z,100755.41
2022-09-23T11:17:55.801Z,100763.97
2022-09-23T11:21:20.841Z,100762.91
2022-09-23T11:24:36.297Z,100752.19
2022-09-23T11:28:05.557Z,100746.06
2022-09-23T11:31:33.653Z,100740.16
2022-09-23T11:35:21.792Z,100734.34
2022-09-23T11:38:35.373Z,100725.41
2022-09-23T11:41:39.772Z,100722.78
2022-09-23T11:44:49.922Z,100723.38
2022-09-23T11:47:56.518Z,100710.16
2022-09-23T11:51:06.020Z,100710.81
2022-09-23T11:54:21.172Z,100702.25
2022-09-23T11:57:46.792Z,100703.97
2022-09-23T12:01:00.409Z,100695.94
2022-09-23T12:04:19.056Z,100690.59
2022-09-23T12:07:30.112Z,100696.84
2022-09-23T12:11:06.057Z,100696.28
2022-09-23T12:14:33.769Z,100690.12
2022-09-23T12:17:36.418Z,100692.53
2022-09-23T12:21:32.744Z,100684.00
2022-09-23T12:25:06.903Z,100691.44
2022-09-23T12:28:18.480Z,100678.50
2022-09-23T12:31:31.836Z,100683.91
2022-09-23T12:34:49.195Z,100687.31
2022-09-23T12:37:53.138Z,100675.97
2022-09-23T12:40:56.537Z,100682.44
2022-09-23T12:44:15.308Z,100671.59
2022-09-23T12:47:21.181Z,100678.03
2022-09-23T12:50:54.355Z,100667.19
2022-09-23T12:54:04.542Z,100671.84
2022-09-23T12:57:34.449Z,100659.91
2022-09-23T13:00:37.039Z,100660.94
2022-09-23T13:04:18.637Z,100642.75
2022-09-23T13:07:30.893Z,100638.72
2022-09-23T13:10:55.447Z,100636.31
2022-09-23T13:14:03.291Z,100631.47
2022-09-23T13:17:06.303Z,100636.97
2022-09-23T13:20:20.730Z,100633.97
2022-09-23T13:23:28.613Z,100631.97
2022-09-23T13:26:32.510Z,100634.44
2022-09-23T13:29:59.411Z,100637.41
2022-09-23T13:33:16.970Z,100640.34
2022-09-23T13:36:21.119Z,100627.16
2022-09-23T13:39:25.854Z,100635.53
2022-09-23T13:42:30.304Z,100635.72
2022-09-23T13:45:38.063Z,100636.78
2022-09-23T13:48:44.671Z,100633.47
2022-09-23T13:51:47.259Z,100633.13
2022-09-23T13:54:50.733Z,100639.06
2022-09-23T13:58:32.463Z,100621.84
2022-09-23T14:01:35.892Z,100625.06
2022-09-23T14:04:38.964Z,100618.72
2022-09-23T14:07:44.702Z,100619.16
2022-09-23T14:10:48.045Z,100622.28
2022-09-23T14:13:54.951Z,100618.94
2022-09-23T14:16:58.689Z,100617.91
2022-09-23T14:20:01.355Z,100616.78
2022-09-23T14:23:12.789Z,100612.44
2022-09-23T14:26:15.376Z,100619.25
2022-09-23T14:29:26.102Z,100614.09
2022-09-23T14:32:30.229Z,100601.88
2022-09-23T14:35:48.582Z,100610.56
2022-09-23T14:38:51.137Z,100608.28
2022-09-23T14:41:54.105Z,100600.38
2022-09-23T14:44:59.327Z,100611.69
2022-09-23T14:48:18.938Z,100607.63
2022-09-23T14:51:22.405Z,100601.34
2022-09-23T14:55:00.748Z,100592.75
2022-09-23T14:58:11.154Z,100588.16
2022-09-23T15:01:32.565Z,100593.34
2022-09-23T15:04:35.469Z,100590.00
2022-09-23T15:07:38.534Z,100593.56
2022-09-23T15:10:41.363Z,100591.62
2022-09-23T15:13:49.378Z,100588.28
2022-09-23T15:16:53.371Z,100587.66
2022-09-23T15:20:08.899Z,100586.00
2022-09-23T15:23:33.010Z,100590.63
2022-09-23T15:26:38.793Z,100583.56
2022-09-23T15:29:41.415Z,100577.50
2022-09-23T15:32:45.625Z,100580.25
2022-09-23T15:35:49.238Z,100579.87
2022-09-23T15:38:53.221Z,100583.44
2022-09-23T15:41:56.184Z,100579.69
2022-09-23T15:45:00.688Z,100573.47
2022-09-23T15:48:10.411Z,100578.03
2022-09-23T15:51:15.618Z,100576.56
2022-09-23T15:54:19.435Z,100571.41
2022-09-23T15:57:22.262Z,100576.63
2022-09-23T16:00:25.031Z,100581.03
